Anoka, MN (55303)

5:26 PM CDT on August 29, 2014 (GMT -0500)
Central Park - Trott Brook | Change Station
CLOSE
Current Station
Personal Weather Station
Location: Ramsey, MN
Elevation: 882 ft
Nearby Weather Stations
Active Advisory: Special Statement Active Notice: Public Information Statement

Elev 882 ft 45.27 °N, 93.45 °W | Updated 6 seconds ago

Rain
Rain
72.3 °F
Feels Like 72.3 °F
N
0.0
Wind Variable Wind from WSW
Gusts 0.0 mph

Today
High -- | Low -- °F
--% Chance of Precip.
Yesterday
High -- | Low -- °F
Precip. -- in
6:31 AM 7:56 PM
Waxing Crescent, 17% visible
Pressure 29.72 in
Visibility 10.0 miles
Clouds Scattered Clouds 2100 ft
Mostly Cloudy 3500 ft
Dew Point 72 °F
Humidity 99%
Rainfall 1.73 in
Snow Depth Not available.
UV 3 out of 12
Pollen 4.10 out of 12
Ozone Good
PM2.5 Good
Flu Activity Not available.
METAR KANE 292055Z 00000KT 10SM SCT021 BKN035 22/21 A2972

More Conditions Fewer Conditions

Pressure 29.72 in
Visibility 10.0 miles
Clouds Scattered Clouds 2100 ft
Mostly Cloudy 3500 ft
Dew Point 72 °F
Humidity 99%
Rainfall 1.73 in
Snow Depth Not available.
UV 3 out of 12
Pollen 4.10 out of 12
Ozone Good
PM2.5 Good
Flu Activity Not available.
METAR KANE 292055Z 00000KT 10SM SCT021 BKN035 22/21 A2972

More Conditions Fewer Conditions

10-Day Weather Forecast

Almanac

Astronomy

Aug. 29, 2014 Rise Set
Actual Time 6:31 AM CDT 7:56 PM CDT
Civil Twilight 6:01 AM CDT 8:27 PM CDT
Nautical Twilight 5:23 AM CDT 9:04 PM CDT
Astronomical Twilight 4:44 AM CDT 9:43 PM CDT
Moon 10:34 AM CDT 9:40 PM CDT
Length of Visible Light 14h 26m
Length of Day
13h 24m
Tomorrow will be 3m 2s shorter.
Waxing Crescent, 17% of the Moon is Illuminated
Today
Waxing Crescent
Sep 2
First Quarter
Sep 8
Full
Sep 15
Last Quarter
Sep 24
New

Today's Extremes

State Highs State Lows

Community

WunderPhotos

Upload Photos

1,748,360 photos uploaded!

Nearby

Air Quality

  Air Quality AQ Index Pollutant
Yesterday Good
OZONE
Yesterday Good
PM2.5
Current Good
OZONE
Current Good
PM2.5
Friday Good
OZONE
Friday Good
PM2.5
Saturday Good
OZONE
Saturday Good
PM2.5
Sunday Moderate
PM2.5
Sunday Good
OZONE
Monday Good
OZONE
Monday Good
PM2.5
Tuesday Good
OZONE
Tuesday Good
PM2.5
Wednesday Good
OZONE
Wednesday Good
PM2.5

Snow Depth

Station Depth Elevation
No new snow has been reported.

Earthquake Activity

City Distance Mag. Time & Date
No recent earthquake activity has been reported nearby.
Minimum magnitude displayed is 2.5.

Coastal Water Temperatures

Place Temperature
No Stations Reporting

Nearby Weather Stations